Terminal Aerodrome Forecast
Issued by NWS Pittsburgh, PA

Current Version | Previous Version | Graphics & Text | Print | Product List | Glossary On
Versions: 1 2 3 4 5 6 7 8 9 10 11 12 13 14 15 16 17 18 19 20 21 22 23 24 25 26 27 28 29 30 31 32 33 34 35 36
000
FTUS41 KPBZ 252300
TAFPIT
TAF
KPIT 252322Z 2600/2706 24008KT P6SM SCT050
     FM260500 24006KT P6SM BKN025
     FM260900 VRB04KT 3SM -SHRA BR OVC012
     FM261700 32008KT 2SM -SHRA OVC008
     FM262100 33008KT P6SM BKN015=

USA.gov is the U.S. government's official web portal to all federal, state and local government web resources and services.